createdAt,value
2019-03-28T00:01:19.886Z,6.78
2019-03-28T00:03:48.148Z,7.12
2019-03-28T00:06:16.486Z,6.97
2019-03-28T00:08:44.694Z,6.95
2019-03-28T00:11:13.547Z,6.83
2019-03-28T00:13:41.803Z,6.96
2019-03-28T00:16:10.083Z,6.91
2019-03-28T00:18:38.342Z,6.81
2019-03-28T00:21:06.627Z,6.78
2019-03-28T00:23:36.528Z,6.70
2019-03-28T00:26:04.816Z,6.76
2019-03-28T00:28:33.073Z,6.67
2019-03-28T00:31:01.350Z,6.62
2019-03-28T00:33:29.611Z,6.51
2019-03-28T00:35:57.896Z,6.48
2019-03-28T00:38:26.156Z,6.55
2019-03-28T00:40:55.243Z,6.53
2019-03-28T00:43:24.254Z,6.50
2019-03-28T00:45:53.067Z,6.45
2019-03-28T00:48:21.334Z,6.48
2019-03-28T00:50:49.610Z,6.41
2019-03-28T00:53:17.878Z,6.34
2019-03-28T00:55:46.491Z,6.34
2019-03-28T00:58:14.746Z,6.28
2019-03-28T01:00:43.033Z,6.24
2019-03-28T01:03:11.391Z,6.14
2019-03-28T01:05:39.653Z,6.05
2019-03-28T01:08:07.915Z,6.01
2019-03-28T01:10:36.200Z,5.97
2019-03-28T01:13:04.458Z,5.98
2019-03-28T01:15:33.409Z,6.07
2019-03-28T01:18:02.535Z,6.15
2019-03-28T01:20:30.815Z,6.08
2019-03-28T01:22:59.076Z,6.11
2019-03-28T01:25:27.536Z,6.10
2019-03-28T01:27:55.894Z,6.03
2019-03-28T01:30:24.180Z,6.06
2019-03-28T01:32:53.268Z,6.04
2019-03-28T01:35:21.670Z,6.16
2019-03-28T01:37:49.927Z,6.15
2019-03-28T01:40:18.187Z,6.14
2019-03-28T01:42:46.471Z,6.13
2019-03-28T01:45:15.499Z,6.08
2019-03-28T01:47:43.779Z,6.04
2019-03-28T01:50:12.042Z,6.07
2019-03-28T01:52:40.322Z,6.15
2019-03-28T01:55:08.586Z,6.23
2019-03-28T01:57:36.881Z,6.27
2019-03-28T02:00:07.695Z,6.23
2019-03-28T02:02:38.757Z,6.24
2019-03-28T02:05:07.888Z,6.26
2019-03-28T02:07:36.166Z,6.27
2019-03-28T02:10:05.368Z,6.30
2019-03-28T02:12:33.653Z,6.37
2019-03-28T02:15:01.915Z,6.47
2019-03-28T02:17:30.962Z,6.43
2019-03-28T02:19:59.225Z,6.64
2019-03-28T02:22:27.508Z,6.74
2019-03-28T02:24:56.539Z,6.70
2019-03-28T02:27:25.873Z,6.66
2019-03-28T02:29:54.372Z,6.73
2019-03-28T02:32:22.728Z,6.82
2019-03-28T02:34:51.061Z,6.84
2019-03-28T02:37:19.345Z,6.76
2019-03-28T02:39:47.599Z,6.75
2019-03-28T02:42:15.879Z,6.72
2019-03-28T02:44:44.134Z,6.77
2019-03-28T02:47:12.419Z,6.90
2019-03-28T02:49:40.945Z,6.88
2019-03-28T02:52:09.790Z,6.92
2019-03-28T02:54:38.048Z,6.82
2019-03-28T02:57:07.695Z,6.93
2019-03-28T02:59:36.473Z,6.86
2019-03-28T03:02:04.819Z,6.77
2019-03-28T03:04:33.091Z,6.77
2019-03-28T03:07:01.365Z,6.71
2019-03-28T03:09:29.618Z,6.82
2019-03-28T03:11:57.905Z,6.79
2019-03-28T03:14:26.169Z,6.82
2019-03-28T03:16:54.450Z,6.82
2019-03-28T03:19:22.714Z,6.73
2019-03-28T03:21:50.986Z,6.76
2019-03-28T03:24:19.249Z,6.66
2019-03-28T03:26:47.539Z,6.65
2019-03-28T03:29:16.904Z,6.81
2019-03-28T03:31:45.204Z,6.67
2019-03-28T03:34:13.463Z,6.48
2019-03-28T03:36:41.742Z,6.51
2019-03-28T03:39:10.568Z,6.58
2019-03-28T03:41:38.866Z,6.57
2019-03-28T03:44:07.113Z,6.54
2019-03-28T03:46:36.169Z,6.63
2019-03-28T03:49:04.843Z,6.55
2019-03-28T03:51:33.552Z,6.52
2019-03-28T03:54:01.817Z,6.56
2019-03-28T03:56:30.076Z,6.47
2019-03-28T03:58:58.941Z,6.53
2019-03-28T04:01:27.479Z,6.56
2019-03-28T04:03:56.544Z,6.58
2019-03-28T04:06:25.832Z,6.49
2019-03-28T04:08:54.139Z,6.51
2019-03-28T04:11:22.370Z,6.49
2019-03-28T04:13:50.677Z,6.44
2019-03-28T04:16:18.940Z,6.42
2019-03-28T04:18:47.995Z,6.47
2019-03-28T04:21:17.604Z,6.39
2019-03-28T04:23:45.982Z,6.23
2019-03-28T04:26:14.819Z,6.25
2019-03-28T04:28:43.092Z,6.16
2019-03-28T04:31:12.688Z,5.96
2019-03-28T04:33:40.973Z,5.89
2019-03-28T04:36:09.226Z,6.06
2019-03-28T04:38:38.614Z,6.12
2019-03-28T04:41:06.869Z,5.92
2019-03-28T04:43:35.149Z,5.97
2019-03-28T04:46:03.405Z,6.11
2019-03-28T04:48:31.691Z,6.11
2019-03-28T04:51:01.343Z,6.00
2019-03-28T04:53:29.820Z,6.00
2019-03-28T04:55:58.022Z,5.95
2019-03-28T04:58:26.306Z,6.02
2019-03-28T05:00:54.568Z,6.15
2019-03-28T05:03:23.486Z,6.15
2019-03-28T05:05:51.788Z,6.07
2019-03-28T05:08:20.392Z,6.15
2019-03-28T05:10:48.645Z,6.04
2019-03-28T05:13:17.803Z,6.06
2019-03-28T05:15:46.062Z,5.98
2019-03-28T05:18:14.629Z,6.01
2019-03-28T05:20:43.657Z,6.14
2019-03-28T05:23:11.939Z,6.25
2019-03-28T05:25:40.195Z,6.17
2019-03-28T05:28:08.477Z,6.11
2019-03-28T05:30:36.745Z,6.11
2019-03-28T05:33:05.023Z,6.05
2019-03-28T05:35:33.285Z,6.07
2019-03-28T05:38:02.393Z,6.31
2019-03-28T05:40:31.788Z,6.33
2019-03-28T05:43:00.814Z,6.30
2019-03-28T05:45:29.104Z,6.23
2019-03-28T05:48:00.209Z,6.19
2019-03-28T05:50:27.366Z,6.08
2019-03-28T05:52:55.622Z,6.13
2019-03-28T05:55:23.906Z,6.12
2019-03-28T05:57:52.162Z,6.18
2019-03-28T06:00:20.450Z,6.33
2019-03-28T06:02:48.707Z,6.30
2019-03-28T06:05:17.763Z,6.26
2019-03-28T06:07:46.022Z,6.31
2019-03-28T06:10:16.328Z,6.49
2019-03-28T06:12:44.801Z,6.48
2019-03-28T06:15:13.511Z,6.56
2019-03-28T06:17:41.766Z,6.63
2019-03-28T06:20:10.046Z,6.57
2019-03-28T06:22:38.307Z,6.71
2019-03-28T06:25:06.607Z,6.61
2019-03-28T06:27:35.779Z,6.64
2019-03-28T06:30:06.460Z,6.73
2019-03-28T06:32:42.846Z,6.89
2019-03-28T06:35:05.592Z,6.94
2019-03-28T06:37:33.850Z,6.84
2019-03-28T06:40:02.431Z,6.87
2019-03-28T06:42:30.694Z,6.96
2019-03-28T06:44:59.746Z,6.94
2019-03-28T06:47:28.008Z,6.97
2019-03-28T06:49:56.666Z,7.06
2019-03-28T06:52:25.593Z,7.13
2019-03-28T06:54:54.344Z,7.13
2019-03-28T06:57:23.547Z,7.23
2019-03-28T06:59:51.826Z,7.17
2019-03-28T07:02:22.089Z,7.20
2019-03-28T07:04:51.191Z,7.29
2019-03-28T07:07:19.728Z,7.43
2019-03-28T07:09:48.011Z,7.50
2019-03-28T07:12:16.274Z,7.61
2019-03-28T07:14:44.555Z,7.64
2019-03-28T07:17:12.811Z,7.65
2019-03-28T07:19:41.671Z,7.80
2019-03-28T07:22:10.382Z,7.77
2019-03-28T07:24:38.769Z,7.83
2019-03-28T07:27:07.032Z,7.91
2019-03-28T07:29:35.320Z,7.99
2019-03-28T07:32:03.580Z,8.02
2019-03-28T07:34:32.931Z,7.88
2019-03-28T07:37:01.193Z,7.89
2019-03-28T07:39:29.451Z,7.83
2019-03-28T07:41:58.303Z,7.98
2019-03-28T07:44:26.559Z,7.99
2019-03-28T07:46:54.839Z,8.00
2019-03-28T07:49:23.097Z,8.00
2019-03-28T07:51:52.155Z,8.01
2019-03-28T07:54:20.398Z,8.25
2019-03-28T07:56:49.418Z,8.23
2019-03-28T07:59:17.721Z,8.30
2019-03-28T08:01:45.999Z,8.33
2019-03-28T08:04:14.264Z,8.49
2019-03-28T08:06:49.559Z,8.63
2019-03-28T08:09:12.535Z,8.68
2019-03-28T08:11:40.820Z,8.85
2019-03-28T08:14:09.078Z,9.14
2019-03-28T08:16:37.364Z,9.21
2019-03-28T08:19:07.997Z,9.12
2019-03-28T08:21:35.644Z,9.27
2019-03-28T08:24:04.062Z,9.30
2019-03-28T08:26:32.910Z,9.26
2019-03-28T08:29:01.259Z,9.21
2019-03-28T08:31:29.528Z,9.24
2019-03-28T08:33:57.787Z,9.28
2019-03-28T08:36:26.067Z,9.37
2019-03-28T08:38:54.327Z,9.29
2019-03-28T08:41:22.608Z,9.52
2019-03-28T08:43:50.866Z,9.53
2019-03-28T08:46:19.151Z,9.64
2019-03-28T08:48:48.527Z,9.65
2019-03-28T08:51:16.816Z,9.48
2019-03-28T08:53:45.072Z,9.54
2019-03-28T08:56:13.837Z,9.52
2019-03-28T08:58:42.097Z,9.43
2019-03-28T09:01:10.381Z,9.13
2019-03-28T09:03:38.660Z,8.98
2019-03-28T09:06:07.495Z,9.10
2019-03-28T09:08:36.429Z,9.08
2019-03-28T09:11:05.079Z,8.87
2019-03-28T09:13:33.336Z,9.23
2019-03-28T09:16:02.186Z,9.83
2019-03-28T09:18:30.448Z,10.37
2019-03-28T09:20:58.744Z,10.50
2019-03-28T09:23:26.993Z,10.72
2019-03-28T09:25:55.275Z,10.56
2019-03-28T09:28:23.537Z,10.64
2019-03-28T09:30:51.821Z,10.90
2019-03-28T09:33:20.082Z,10.97
2019-03-28T09:35:48.375Z,10.94
2019-03-28T09:38:16.639Z,10.74
2019-03-28T09:40:45.450Z,10.95
2019-03-28T09:43:13.739Z,11.31
2019-03-28T09:45:42.001Z,11.28
2019-03-28T09:48:11.871Z,11.14
2019-03-28T09:50:40.486Z,11.21
2019-03-28T09:53:09.439Z,11.30
2019-03-28T09:55:38.472Z,11.48
2019-03-28T09:58:06.755Z,11.78
2019-03-28T10:00:35.016Z,12.10
2019-03-28T10:03:03.875Z,12.37
2019-03-28T10:05:32.136Z,12.02
2019-03-28T10:08:00.414Z,12.22
2019-03-28T10:10:28.677Z,12.01
2019-03-28T10:12:56.959Z,11.73
2019-03-28T10:15:25.226Z,11.58
2019-03-28T10:17:54.872Z,11.75
2019-03-28T10:20:23.411Z,11.50
2019-03-28T10:22:51.692Z,11.77
2019-03-28T10:25:19.951Z,12.27
2019-03-28T10:27:48.902Z,12.41
2019-03-28T10:30:17.159Z,12.32
2019-03-28T10:32:45.433Z,11.97
2019-03-28T10:35:16.946Z,11.97
2019-03-28T10:37:45.223Z,11.73
2019-03-28T10:40:14.051Z,11.85
2019-03-28T10:42:42.331Z,11.82
2019-03-28T10:45:11.160Z,11.71
2019-03-28T10:47:39.445Z,11.69
2019-03-28T10:50:07.699Z,11.73
2019-03-28T10:52:35.979Z,11.57
2019-03-28T10:55:04.862Z,11.46
2019-03-28T10:57:33.138Z,11.38
2019-03-28T11:00:01.416Z,11.43
2019-03-28T11:02:29.684Z,11.53
2019-03-28T11:04:57.931Z,11.69
2019-03-28T11:07:26.209Z,11.77
2019-03-28T11:09:54.462Z,11.93
2019-03-28T11:12:22.845Z,11.89
2019-03-28T11:14:51.074Z,11.76
2019-03-28T11:17:19.429Z,11.82
2019-03-28T11:19:47.683Z,11.90
2019-03-28T11:22:15.962Z,12.07
2019-03-28T11:24:46.319Z,11.93
2019-03-28T11:27:14.232Z,11.97
2019-03-28T11:29:42.481Z,11.74
2019-03-28T11:32:10.741Z,11.58
2019-03-28T11:34:40.337Z,11.63
2019-03-28T11:39:39.437Z,11.74
2019-03-28T11:42:07.693Z,11.77
2019-03-28T11:42:35.505Z,11.62
2019-03-28T11:44:35.980Z,11.77
2019-03-28T11:47:04.229Z,11.66
2019-03-28T11:49:32.505Z,11.66
2019-03-28T11:52:00.764Z,11.71
2019-03-28T11:54:29.038Z,11.75
2019-03-28T11:56:57.294Z,11.77
2019-03-28T11:59:26.347Z,11.82
2019-03-28T12:02:00.492Z,11.90
2019-03-28T12:04:24.611Z,11.81
2019-03-28T12:06:52.891Z,11.57
2019-03-28T12:09:21.171Z,11.68
2019-03-28T12:11:52.669Z,11.74
2019-03-28T12:14:19.426Z,11.70
2019-03-28T12:16:47.686Z,11.53
2019-03-28T12:19:17.724Z,11.55
2019-03-28T12:21:45.946Z,11.70
2019-03-28T12:24:14.801Z,11.35
2019-03-28T12:26:43.064Z,11.46
2019-03-28T12:36:57.733Z,11.25
2019-03-28T12:39:26.013Z,11.25
2019-03-28T12:41:54.272Z,11.30
2019-03-28T12:44:22.561Z,11.45
2019-03-28T12:46:50.805Z,11.29
2019-03-28T12:49:19.087Z,11.18
2019-03-28T12:51:47.342Z,11.12
2019-03-28T12:54:15.622Z,11.15
2019-03-28T12:56:43.875Z,11.06
2019-03-28T12:59:12.474Z,11.06
2019-03-28T13:01:41.059Z,11.08
2019-03-28T13:04:09.338Z,11.03
2019-03-28T13:06:38.364Z,11.22
2019-03-28T13:09:09.830Z,11.34
2019-03-28T13:11:38.108Z,11.38
2019-03-28T13:14:06.385Z,11.46
2019-03-28T13:16:34.646Z,11.38
2019-03-28T13:19:02.922Z,11.46
2019-03-28T13:21:31.177Z,11.46
2019-03-28T13:23:59.458Z,11.51
2019-03-28T13:26:27.710Z,11.40
2019-03-28T13:28:56.030Z,11.35
2019-03-28T13:31:24.320Z,11.45
2019-03-28T13:33:52.600Z,11.58
2019-03-28T13:36:21.427Z,11.40
2019-03-28T13:38:49.697Z,11.40
2019-03-28T13:41:17.948Z,11.42
2019-03-28T13:43:46.225Z,11.43
2019-03-28T13:46:14.477Z,11.52
2019-03-28T13:48:42.734Z,11.55
2019-03-28T13:51:11.011Z,11.35
2019-03-28T13:53:40.085Z,11.18
2019-03-28T13:56:08.519Z,10.94
2019-03-28T13:58:36.784Z,11.03
2019-03-28T14:01:05.058Z,11.09
2019-03-28T14:03:33.310Z,11.12
2019-03-28T14:06:01.587Z,11.21
2019-03-28T14:08:29.843Z,11.29
2019-03-28T14:10:58.686Z,11.16
2019-03-28T14:13:26.946Z,11.31
2019-03-28T14:15:55.222Z,11.21
2019-03-28T14:18:23.472Z,11.15
2019-03-28T14:20:52.321Z,11.06
2019-03-28T14:23:20.662Z,11.02
2019-03-28T14:25:48.938Z,11.13
2019-03-28T14:28:17.198Z,10.96
2019-03-28T14:30:45.477Z,11.04
2019-03-28T14:33:15.918Z,11.16
2019-03-28T14:35:43.753Z,11.25
2019-03-28T14:38:12.015Z,11.28
2019-03-28T14:40:40.290Z,11.20
2019-03-28T14:43:10.725Z,11.34
2019-03-28T14:45:38.718Z,11.21
2019-03-28T14:48:07.151Z,11.26
2019-03-28T14:50:39.646Z,11.16
2019-03-28T14:53:07.830Z,11.03
2019-03-28T14:55:36.114Z,10.91
2019-03-28T14:58:04.711Z,11.13
2019-03-28T15:00:47.970Z,11.03
2019-03-28T15:03:25.660Z,11.06
2019-03-28T15:05:46.289Z,11.02
2019-03-28T15:08:14.546Z,11.12
2019-03-28T15:10:42.831Z,11.12
2019-03-28T15:13:11.858Z,11.12
2019-03-28T15:15:40.134Z,11.04
2019-03-28T15:18:09.169Z,11.01
2019-03-28T15:20:37.444Z,10.96
2019-03-28T15:23:05.703Z,11.10
2019-03-28T15:25:33.978Z,11.21
2019-03-28T15:28:02.239Z,11.04
2019-03-28T15:30:30.514Z,11.06
2019-03-28T15:32:58.770Z,11.20
2019-03-28T15:35:27.042Z,11.24
2019-03-28T15:37:55.296Z,11.34
2019-03-28T15:40:23.577Z,11.23
2019-03-28T15:42:51.828Z,11.26
2019-03-28T15:45:20.110Z,11.18
2019-03-28T15:47:48.360Z,11.23
2019-03-28T15:50:16.634Z,11.07
2019-03-28T15:52:44.885Z,11.05
2019-03-28T15:55:14.660Z,11.17
2019-03-28T15:57:43.302Z,11.10
2019-03-28T16:00:11.571Z,11.11
2019-03-28T16:02:39.893Z,11.19
2019-03-28T16:05:08.174Z,11.36
2019-03-28T16:07:37.203Z,11.17
2019-03-28T16:10:08.266Z,11.16
2019-03-28T16:12:36.521Z,11.18
2019-03-28T16:15:07.342Z,11.31
2019-03-28T16:17:35.596Z,11.26
2019-03-28T16:20:05.106Z,11.24
2019-03-28T16:22:33.358Z,11.28
2019-03-28T16:25:01.654Z,11.20
2019-03-28T16:27:29.902Z,11.05
2019-03-28T16:29:58.156Z,11.06
2019-03-28T16:32:26.473Z,11.04
2019-03-28T16:34:54.684Z,10.91
2019-03-28T16:37:22.970Z,10.90
2019-03-28T16:39:51.221Z,10.84
2019-03-28T16:42:19.498Z,10.84
2019-03-28T16:44:48.324Z,10.74
2019-03-28T16:47:16.598Z,10.81
2019-03-28T16:49:44.850Z,10.75
2019-03-28T16:52:15.829Z,10.81
2019-03-28T16:54:44.081Z,10.79
2019-03-28T16:57:12.930Z,10.74
2019-03-28T16:59:41.188Z,10.49
2019-03-28T17:02:09.467Z,10.35
2019-03-28T17:04:37.743Z,10.39
2019-03-28T17:07:06.878Z,10.45
2019-03-28T17:09:37.568Z,10.36
2019-03-28T17:12:05.163Z,10.39
2019-03-28T17:14:33.399Z,10.40
2019-03-28T17:17:02.243Z,10.48
2019-03-28T17:19:30.499Z,10.45
2019-03-28T17:21:58.779Z,10.24
2019-03-28T17:24:28.031Z,10.06
2019-03-28T17:26:56.402Z,10.05
2019-03-28T17:29:25.000Z,10.10
2019-03-28T17:31:53.274Z,10.15
2019-03-28T17:34:34.205Z,10.09
2019-03-28T17:36:52.369Z,10.05
2019-03-28T17:39:20.631Z,10.13
2019-03-28T17:41:50.250Z,10.05
2019-03-28T17:44:18.507Z,10.07
2019-03-28T17:46:46.786Z,10.14
2019-03-28T17:49:15.062Z,10.06
2019-03-28T17:51:43.325Z,9.86
2019-03-28T17:54:11.961Z,9.75
2019-03-28T17:56:40.429Z,9.67
2019-03-28T17:59:08.681Z,9.67
2019-03-28T18:01:36.960Z,9.59
2019-03-28T18:04:05.861Z,9.54
2019-03-28T18:06:35.418Z,9.68
2019-03-28T18:09:05.296Z,9.67
2019-03-28T18:11:33.569Z,9.48
2019-03-28T18:14:02.597Z,9.43
2019-03-28T18:16:30.870Z,9.60
2019-03-28T18:18:59.121Z,9.41
2019-03-28T18:21:27.448Z,9.35
2019-03-28T18:23:55.696Z,9.28
2019-03-28T18:26:23.949Z,9.27
2019-03-28T18:28:52.228Z,9.02
2019-03-28T18:31:21.250Z,8.91
2019-03-28T18:33:49.526Z,8.86
2019-03-28T18:36:18.548Z,8.91
2019-03-28T18:38:46.825Z,9.03
2019-03-28T18:41:15.079Z,8.89
2019-03-28T18:43:43.349Z,8.89
2019-03-28T18:46:14.752Z,8.87
2019-03-28T18:48:42.170Z,8.82
2019-03-28T18:51:11.093Z,8.78
2019-03-28T18:53:39.373Z,8.65
2019-03-28T18:56:07.621Z,8.72
2019-03-28T18:58:35.902Z,8.69
2019-03-28T19:01:04.152Z,8.55
2019-03-28T19:03:33.267Z,8.53
2019-03-28T19:06:03.151Z,8.45
2019-03-28T19:08:31.424Z,8.44
2019-03-28T19:10:59.677Z,8.43
2019-03-28T19:13:27.949Z,8.34
2019-03-28T19:15:56.200Z,8.16
2019-03-28T19:18:25.712Z,8.24
2019-03-28T19:20:54.693Z,8.20
2019-03-28T19:23:24.827Z,8.14
2019-03-28T19:25:53.167Z,8.08
2019-03-28T19:28:28.812Z,8.04
2019-03-28T19:30:51.432Z,8.02
2019-03-28T19:33:19.709Z,8.01
2019-03-28T19:35:47.962Z,8.04
2019-03-28T19:38:17.038Z,7.84
2019-03-28T19:40:45.213Z,7.86
2019-03-28T19:43:20.331Z,7.88
2019-03-28T19:45:43.471Z,7.97
2019-03-28T19:48:11.748Z,7.86
2019-03-28T19:50:40.004Z,7.78
2019-03-28T19:53:11.565Z,7.63
2019-03-28T19:55:39.885Z,7.40
2019-03-28T19:58:08.260Z,7.45
2019-03-28T20:00:36.514Z,7.26
2019-03-28T20:03:04.772Z,7.31
2019-03-28T20:05:46.434Z,7.35
2019-03-28T20:08:14.681Z,7.29
2019-03-28T20:10:33.598Z,7.39
2019-03-28T20:13:05.088Z,7.38
2019-03-28T20:15:32.431Z,7.39
2019-03-28T20:18:00.677Z,7.42
2019-03-28T20:20:28.953Z,7.31
2019-03-28T20:22:57.207Z,7.39
2019-03-28T20:25:26.253Z,7.28
2019-03-28T20:27:54.579Z,7.27
2019-03-28T20:30:24.758Z,7.36
2019-03-28T20:32:53.010Z,7.48
2019-03-28T20:35:22.022Z,7.55
2019-03-28T20:37:50.415Z,7.62
2019-03-28T20:40:19.262Z,7.57
2019-03-28T20:42:47.512Z,7.59
2019-03-28T20:45:15.958Z,7.59
2019-03-28T20:47:44.886Z,7.49
2019-03-28T20:50:13.252Z,7.37
2019-03-28T20:52:42.074Z,7.14
2019-03-28T20:55:10.360Z,7.11
2019-03-28T20:57:40.421Z,7.03
2019-03-28T21:00:09.021Z,6.89
2019-03-28T21:02:37.400Z,6.68
2019-03-28T21:05:08.597Z,6.61
2019-03-28T21:07:36.855Z,6.60
2019-03-28T21:10:06.069Z,6.55
2019-03-28T21:12:34.322Z,6.48
2019-03-28T21:15:02.603Z,6.42
2019-03-28T21:17:32.222Z,6.33
2019-03-28T21:20:00.861Z,6.28
2019-03-28T21:22:29.120Z,6.27
2019-03-28T21:24:57.385Z,6.30
2019-03-28T21:27:25.644Z,6.23
2019-03-28T21:29:53.917Z,6.26
2019-03-28T21:32:23.610Z,6.22
2019-03-28T21:34:51.889Z,6.25
2019-03-28T21:37:20.140Z,6.25
2019-03-28T21:39:48.422Z,6.26
2019-03-28T21:42:17.240Z,6.20
2019-03-28T21:44:45.520Z,6.17
2019-03-28T21:47:13.773Z,6.11
2019-03-28T21:49:42.049Z,6.18
2019-03-28T21:52:11.084Z,6.10
2019-03-28T21:54:39.354Z,6.24
2019-03-28T21:57:07.605Z,6.26
2019-03-28T21:59:35.889Z,6.32
2019-03-28T22:02:04.146Z,6.49
2019-03-28T22:04:32.453Z,6.53
2019-03-28T22:07:00.715Z,6.58
2019-03-28T22:09:28.966Z,6.54
2019-03-28T22:12:00.469Z,6.64
2019-03-28T22:14:27.241Z,6.68
2019-03-28T22:16:55.510Z,6.75
2019-03-28T22:19:24.012Z,6.78
2019-03-28T22:21:52.294Z,6.79
2019-03-28T22:24:20.556Z,6.93
2019-03-28T22:26:48.840Z,6.91
2019-03-28T22:29:17.364Z,6.95
2019-03-28T22:31:45.640Z,6.98
2019-03-28T22:34:13.892Z,7.08
2019-03-28T22:36:56.258Z,7.08
2019-03-28T22:39:12.784Z,7.15
2019-03-28T22:41:41.101Z,7.16
2019-03-28T22:44:09.353Z,7.16
2019-03-28T22:46:39.794Z,7.09
2019-03-28T22:49:08.375Z,6.81
2019-03-28T22:51:36.649Z,6.76
2019-03-28T22:54:04.974Z,6.63
2019-03-28T22:56:33.265Z,6.43
2019-03-28T22:59:01.508Z,6.22
2019-03-28T23:01:29.786Z,6.29
2019-03-28T23:03:58.372Z,6.38
2019-03-28T23:06:26.718Z,6.42
2019-03-28T23:08:54.979Z,6.36
2019-03-28T23:11:23.260Z,6.33
2019-03-28T23:13:52.837Z,6.27
2019-03-28T23:16:21.501Z,6.37
2019-03-28T23:18:49.769Z,6.39
2019-03-28T23:21:18.049Z,6.47
2019-03-28T23:23:46.305Z,6.46
2019-03-28T23:26:14.587Z,6.43
2019-03-28T23:28:42.844Z,6.29
2019-03-28T23:31:11.121Z,6.34
2019-03-28T23:33:39.380Z,6.17
2019-03-28T23:36:07.662Z,6.07
2019-03-28T23:38:35.919Z,5.89
2019-03-28T23:41:04.206Z,6.00
2019-03-28T23:43:32.463Z,6.08
2019-03-28T23:46:00.748Z,6.16
2019-03-28T23:48:29.011Z,6.18
2019-03-28T23:50:57.294Z,6.13
2019-03-28T23:53:25.555Z,6.19
2019-03-28T23:55:53.832Z,6.25
2019-03-28T23:58:22.090Z,6.22
